Wetterdaten: Woche 09.05.16 - 15.05.16 (KW19)
Datum Zeit Temp. A. Feuchte A. Luftdruck Regen Wind Richtung Sonnenschein ET UV Solar Taupunkt Windchill Windben Empfang
09.05.2016 00:00 12,3 C 73 % 1013,2 hPa 0,0 l/m 9,3 km/h (2 Bft) NO 0,00 h 0,000 mm 0,0 UV-I 0 W/m 7,6 C 10,5 C 13,7 km/h (3 Bft) 99,73 %
09.05.2016 01:00 11,7 C 76 % 1012,9 hPa 0,0 l/m 12,4 km/h (3 Bft) O-NO 0,00 h 0,025 mm 0,0 UV-I 0 W/m 7,6 C 8,4 C 16,9 km/h (3 Bft) 97,86 %
09.05.2016 02:00 11,1 C 79 % 1012,6 hPa 0,0 l/m 11,2 km/h (2 Bft) O-NO 0,00 h 0,026 mm 0,0 UV-I 0 W/m 7,6 C 8,3 C 15,6 km/h (3 Bft) 99,53 %
09.05.2016 03:00 10,4 C 82 % 1012,4 hPa 0,0 l/m 8,4 km/h (2 Bft) O-NO 0,00 h 0,025 mm 0,0 UV-I 0 W/m 7,5 C 8,8 C 11,8 km/h (2 Bft) 98,19 %
09.05.2016 04:00 9,6 C 85 % 1012,5 hPa 0,0 l/m 6,7 km/h (2 Bft) O-NO 0,00 h 0,026 mm 0,0 UV-I 0 W/m 7,2 C 9,1 C 10,0 km/h (2 Bft) 99,38 %
09.05.2016 05:00 8,9 C 87 % 1012,7 hPa 0,0 l/m 3,9 km/h (1 Bft) NO 0,02 h 0,025 mm 0,0 UV-I 9 W/m 6,9 C 8,9 C 5,6 km/h (1 Bft) 97,23 %
09.05.2016 06:00 9,5 C 86 % 1013,0 hPa 0,0 l/m 6,7 km/h (2 Bft) O-NO 0,13 h 0,000 mm 0,0 UV-I 43 W/m 7,3 C 8,6 C 9,3 km/h (2 Bft) 99,47 %
09.05.2016 07:00 11,5 C 80 % 1013,2 hPa 0,0 l/m 13,7 km/h (3 Bft) O-NO 1,00 h 0,025 mm 0,6 UV-I 221 W/m 8,2 C 7,7 C 19,1 km/h (3 Bft) 98,19 %
09.05.2016 08:00 13,6 C 73 % 1013,5 hPa 0,0 l/m 15,4 km/h (3 Bft) O-NO 0,93 h 0,127 mm 1,1 UV-I 337 W/m 8,9 C 9,5 C 20,5 km/h (4 Bft) 99,23 %
09.05.2016 09:00 15,4 C 68 % 1013,5 hPa 0,0 l/m 14,6 km/h (3 Bft) O-NO 1,00 h 0,229 mm 2,1 UV-I 545 W/m 9,7 C 12,0 C 19,7 km/h (3 Bft) 97,87 %
09.05.2016 10:00 17,2 C 64 % 1013,6 hPa 0,0 l/m 15,5 km/h (3 Bft) NO 1,00 h 0,330 mm 3,3 UV-I 697 W/m 10,3 C 13,9 C 20,8 km/h (4 Bft) 99,32 %
09.05.2016 11:00 18,9 C 58 % 1013,6 hPa 0,0 l/m 17,6 km/h (3 Bft) NO 1,00 h 0,457 mm 4,6 UV-I 797 W/m 10,3 C 15,3 C 23,0 km/h (4 Bft) 98,25 %
09.05.2016 12:00 20,2 C 56 % 1013,3 hPa 0,0 l/m 17,8 km/h (3 Bft) NO 1,00 h 0,559 mm 5,1 UV-I 848 W/m 11,1 C 16,9 C 24,4 km/h (4 Bft) 99,52 %
09.05.2016 13:00 21,1 C 53 % 1013,0 hPa 0,0 l/m 19,7 km/h (3 Bft) NO 1,00 h 0,584 mm 5,1 UV-I 851 W/m 11,0 C 17,8 C 27,3 km/h (4 Bft) 97,64 %
09.05.2016 14:00 22,0 C 50 % 1012,8 hPa 0,0 l/m 21,0 km/h (4 Bft) O-NO 1,00 h 0,635 mm 4,5 UV-I 799 W/m 11,0 C 18,7 C 27,6 km/h (4 Bft) 99,09 %
09.05.2016 15:00 22,4 C 47 % 1012,5 hPa 0,0 l/m 21,1 km/h (4 Bft) O-NO 1,00 h 0,635 mm 3,3 UV-I 696 W/m 10,7 C 19,2 C 27,9 km/h (4 Bft) 98,45 %
09.05.2016 16:00 22,6 C 46 % 1012,4 hPa 0,0 l/m 20,9 km/h (4 Bft) O-NO 1,00 h 0,585 mm 2,1 UV-I 564 W/m 10,4 C 19,4 C 27,5 km/h (4 Bft) 99,10 %
09.05.2016 17:00 22,4 C 45 % 1012,1 hPa 0,0 l/m 20,8 km/h (4 Bft) O-NO 1,00 h 0,508 mm 1,2 UV-I 419 W/m 9,8 C 19,2 C 27,6 km/h (4 Bft) 98,76 %
09.05.2016 18:00 21,6 C 45 % 1011,9 hPa 0,0 l/m 22,0 km/h (4 Bft) O-NO 1,00 h 0,431 mm 0,6 UV-I 248 W/m 9,3 C 18,1 C 28,9 km/h (5 Bft) 98,83 %
09.05.2016 19:00 20,4 C 50 % 1012,1 hPa 0,0 l/m 18,1 km/h (3 Bft) O-NO 0,40 h 0,331 mm 0,0 UV-I 74 W/m 9,6 C 17,1 C 24,4 km/h (4 Bft) 98,68 %
09.05.2016 20:00 18,5 C 57 % 1012,5 hPa 0,0 l/m 15,3 km/h (3 Bft) O-NO 0,03 h 0,177 mm 0,0 UV-I 11 W/m 9,7 C 15,4 C 20,5 km/h (4 Bft) 98,45 %
09.05.2016 21:00 17,0 C 62 % 1012,8 hPa 0,0 l/m 11,2 km/h (2 Bft) O-NO 0,00 h 0,102 mm 0,0 UV-I 0 W/m 9,7 C 14,9 C 15,2 km/h (3 Bft) 98,50 %
09.05.2016 22:00 15,2 C 70 % 1012,8 hPa 0,0 l/m 7,2 km/h (2 Bft) NO 0,00 h 0,051 mm 0,0 UV-I 0 W/m 9,7 C 14,6 C 10,1 km/h (2 Bft) 98,43 %
09.05.2016 23:00 14,4 C 74 % 1012,8 hPa 0,0 l/m 9,0 km/h (2 Bft) NO 0,00 h 0,025 mm 0,0 UV-I 0 W/m 9,8 C 13,0 C 12,8 km/h (3 Bft) 98,55 %
10.05.2016 00:00 14,1 C 77 % 1012,7 hPa 0,0 l/m 12,6 km/h (3 Bft) O-NO 0,00 h 0,000 mm 0,0 UV-I 0 W/m 10,0 C 11,0 C 17,0 km/h (3 Bft) 98,20 %
10.05.2016 01:00 13,5 C 78 % 1012,3 hPa 0,0 l/m 13,7 km/h (3 Bft) O-NO 0,00 h 0,051 mm 0,0 UV-I 0 W/m 9,8 C 9,9 C 18,8 km/h (3 Bft) 98,40 %
10.05.2016 02:00 13,0 C 79 % 1012,0 hPa 0,0 l/m 16,1 km/h (3 Bft) O-NO 0,00 h 0,025 mm 0,0 UV-I 0 W/m 9,6 C 8,5 C 22,0 km/h (4 Bft) 98,41 %
10.05.2016 03:00 12,2 C 82 % 1011,7 hPa 0,0 l/m 14,1 km/h (3 Bft) O-NO 0,00 h 0,051 mm 0,0 UV-I 0 W/m 9,1 C 8,2 C 19,4 km/h (3 Bft) 98,92 %
10.05.2016 04:00 11,5 C 84 % 1011,6 hPa 0,0 l/m 17,0 km/h (3 Bft) O-NO 0,00 h 0,025 mm 0,0 UV-I 0 W/m 8,8 C 6,3 C 23,6 km/h (4 Bft) 98,91 %
10.05.2016 05:00 11,1 C 85 % 1011,3 hPa 0,0 l/m 20,5 km/h (4 Bft) O-NO 0,12 h 0,026 mm 0,0 UV-I 13 W/m 8,6 C 4,7 C 27,6 km/h (4 Bft) 98,63 %
10.05.2016 06:00 11,2 C 85 % 1011,4 hPa 0,0 l/m 20,5 km/h (4 Bft) O-NO 0,00 h 0,051 mm 0,0 UV-I 46 W/m 8,7 C 4,7 C 28,2 km/h (4 Bft) 98,46 %
10.05.2016 07:00 11,8 C 84 % 1011,3 hPa 0,0 l/m 20,1 km/h (4 Bft) O-NO 0,73 h 0,050 mm 0,6 UV-I 201 W/m 9,2 C 5,7 C 27,5 km/h (4 Bft) 98,14 %
10.05.2016 08:00 13,2 C 80 % 1011,0 hPa 0,0 l/m 21,8 km/h (4 Bft) O-NO 0,98 h 0,127 mm 1,1 UV-I 346 W/m 9,9 C 7,0 C 29,3 km/h (5 Bft) 98,80 %
10.05.2016 09:00 15,1 C 75 % 1010,5 hPa 0,0 l/m 19,6 km/h (3 Bft) NO 1,00 h 0,229 mm 2,0 UV-I 529 W/m 10,6 C 10,1 C 26,3 km/h (4 Bft) 98,66 %
10.05.2016 10:00 16,6 C 69 % 1010,2 hPa 0,0 l/m 22,4 km/h (4 Bft) NO 1,00 h 0,330 mm 3,2 UV-I 678 W/m 10,8 C 11,3 C 29,6 km/h (5 Bft) 98,14 %
10.05.2016 11:00 18,1 C 64 % 1009,9 hPa 0,0 l/m 23,2 km/h (4 Bft) O-NO 1,00 h 0,457 mm 4,4 UV-I 794 W/m 11,3 C 13,2 C 30,7 km/h (5 Bft) 99,46 %
10.05.2016 12:00 19,4 C 60 % 1009,4 hPa 0,0 l/m 24,7 km/h (4 Bft) O-NO 1,00 h 0,559 mm 4,8 UV-I 804 W/m 11,4 C 14,6 C 32,0 km/h (5 Bft) 98,30 %
10.05.2016 13:00 19,7 C 59 % 1009,1 hPa 0,0 l/m 23,2 km/h (4 Bft) O-NO 0,83 h 0,584 mm 3,7 UV-I 580 W/m 11,4 C 15,2 C 30,5 km/h (5 Bft) 99,36 %
10.05.2016 14:00 19,6 C 60 % 1008,8 hPa 0,0 l/m 24,3 km/h (4 Bft) O-NO 0,40 h 0,458 mm 2,7 UV-I 443 W/m 11,5 C 14,9 C 32,1 km/h (5 Bft) 98,02 %
10.05.2016 15:00 19,4 C 61 % 1008,6 hPa 0,0 l/m 21,0 km/h (4 Bft) O-NO 0,00 h 0,381 mm 1,8 UV-I 342 W/m 11,6 C 15,3 C 27,7 km/h (4 Bft) 99,55 %
10.05.2016 16:00 19,2 C 62 % 1008,7 hPa 0,0 l/m 17,1 km/h (3 Bft) O-NO 0,00 h 0,304 mm 0,9 UV-I 201 W/m 11,6 C 15,9 C 23,3 km/h (4 Bft) 98,16 %
10.05.2016 17:00 18,8 C 63 % 1009,0 hPa 0,0 l/m 15,6 km/h (3 Bft) O-NO 0,00 h 0,204 mm 0,5 UV-I 134 W/m 11,5 C 15,7 C 21,0 km/h (4 Bft) 99,72 %
10.05.2016 18:00 17,9 C 66 % 1009,2 hPa 0,0 l/m 15,7 km/h (3 Bft) O-NO 0,00 h 0,152 mm 0,0 UV-I 53 W/m 11,4 C 14,6 C 21,4 km/h (4 Bft) 98,10 %
10.05.2016 19:00 17,1 C 69 % 1009,2 hPa 0,0 l/m 14,3 km/h (3 Bft) O-NO 0,00 h 0,102 mm 0,0 UV-I 46 W/m 11,3 C 14,1 C 18,8 km/h (3 Bft) 99,34 %
10.05.2016 20:00 16,2 C 72 % 1009,3 hPa 0,0 l/m 11,5 km/h (2 Bft) O-NO 0,00 h 0,076 mm 0,0 UV-I 9 W/m 11,3 C 14,0 C 16,6 km/h (3 Bft) 97,73 %
10.05.2016 21:00 15,4 C 76 % 1009,8 hPa 0,0 l/m 12,9 km/h (3 Bft) O-NO 0,00 h 0,051 mm 0,0 UV-I 0 W/m 11,1 C 12,5 C 18,2 km/h (3 Bft) 99,22 %
10.05.2016 22:00 14,7 C 77 % 1010,0 hPa 0,0 l/m 16,2 km/h (3 Bft) O-NO 0,00 h 0,050 mm 0,0 UV-I 0 W/m 10,7 C 10,5 C 21,8 km/h (4 Bft) 98,17 %
10.05.2016 23:00 14,1 C 79 % 1009,8 hPa 0,0 l/m 16,0 km/h (3 Bft) O-NO 0,00 h 0,051 mm 0,0 UV-I 0 W/m 10,6 C 9,9 C 21,2 km/h (4 Bft) 99,10 %
11.05.2016 00:00 13,5 C 82 % 1009,3 hPa 0,0 l/m 15,7 km/h (3 Bft) O-NO 0,00 h 0,000 mm 0,0 UV-I 0 W/m 10,5 C 9,2 C 21,1 km/h (4 Bft) 97,62 %
11.05.2016 01:00 13,0 C 84 % 1009,0 hPa 0,0 l/m 11,6 km/h (2 Bft) O-NO 0,00 h 0,025 mm 0,0 UV-I 0 W/m 10,3 C 10,3 C 16,3 km/h (3 Bft) 99,18 %
11.05.2016 02:00 12,7 C 85 % 1008,6 hPa 0,0 l/m 12,3 km/h (3 Bft) O-NO 0,00 h 0,026 mm 0,0 UV-I 0 W/m 10,2 C 9,5 C 17,3 km/h (3 Bft) 98,06 %
11.05.2016 03:00 12,3 C 85 % 1008,3 hPa 0,0 l/m 16,4 km/h (3 Bft) O-NO 0,00 h 0,025 mm 0,0 UV-I 0 W/m 9,9 C 7,5 C 21,7 km/h (4 Bft) 99,33 %
11.05.2016 04:00 11,6 C 88 % 1008,0 hPa 0,0 l/m 16,7 km/h (3 Bft) O-NO 0,00 h 0,026 mm 0,0 UV-I 0 W/m 9,7 C 6,5 C 22,5 km/h (4 Bft) 98,18 %
11.05.2016 05:00 11,5 C 90 % 1008,0 hPa 0,0 l/m 19,4 km/h (3 Bft) O-NO 0,00 h 0,025 mm 0,0 UV-I 10 W/m 9,9 C 5,5 C 25,9 km/h (4 Bft) 99,42 %
11.05.2016 06:00 11,7 C 89 % 1007,9 hPa 0,0 l/m 19,2 km/h (3 Bft) O-NO 0,00 h 0,025 mm 0,0 UV-I 14 W/m 9,9 C 5,9 C 26,4 km/h (4 Bft) 97,55 %
11.05.2016 07:00 12,1 C 87 % 1007,6 hPa 0,0 l/m 22,0 km/h (4 Bft) O-NO 0,00 h 0,026 mm 0,0 UV-I 85 W/m 10,1 C 5,6 C 29,5 km/h (5 Bft) 98,89 %
11.05.2016 08:00 12,6 C 86 % 1007,5 hPa 0,0 l/m 23,8 km/h (4 Bft) O-NO 0,00 h 0,076 mm 0,6 UV-I 135 W/m 10,3 C 5,8 C 32,1 km/h (5 Bft) 97,92 %
11.05.2016 09:00 13,7 C 83 % 1007,3 hPa 0,0 l/m 23,6 km/h (4 Bft) O-NO 0,22 h 0,102 mm 1,4 UV-I 303 W/m 10,9 C 7,2 C 31,3 km/h (5 Bft) 99,76 %
11.05.2016 10:00 15,6 C 77 % 1006,6 hPa 0,0 l/m 26,0 km/h (4 Bft) O-NO 0,95 h 0,228 mm 2,9 UV-I 642 W/m 11,5 C 9,2 C 34,3 km/h (5 Bft) 97,82 %
11.05.2016 11:00 16,7 C 74 % 1005,7 hPa 0,0 l/m 25,4 km/h (4 Bft) O-NO 0,87 h 0,407 mm 3,3 UV-I 592 W/m 12,0 C 10,9 C 34,2 km/h (5 Bft) 98,68 %
11.05.2016 12:00 17,8 C 70 % 1004,9 hPa 0,0 l/m 25,6 km/h (4 Bft) NO 0,97 h 0,406 mm 3,8 UV-I 639 W/m 12,3 C 12,4 C 34,4 km/h (5 Bft) 98,63 %
11.05.2016 13:00 18,8 C 67 % 1004,5 hPa 0,0 l/m 30,0 km/h (5 Bft) NO 1,00 h 0,457 mm 4,7 UV-I 791 W/m 12,5 C 13,0 C 39,7 km/h (6 Bft) 98,82 %
11.05.2016 14:00 19,6 C 64 % 1003,8 hPa 0,0 l/m 28,6 km/h (4 Bft) O-NO 1,00 h 0,584 mm 4,5 UV-I 786 W/m 12,6 C 14,4 C 38,9 km/h (6 Bft) 98,92 %
11.05.2016 15:00 19,9 C 64 % 1003,3 hPa 0,0 l/m 28,4 km/h (4 Bft) O-NO 1,00 h 0,585 mm 3,4 UV-I 692 W/m 12,8 C 14,8 C 38,6 km/h (5 Bft) 97,99 %
11.05.2016 16:00 19,5 C 64 % 1002,8 hPa 0,0 l/m 30,0 km/h (5 Bft) NO 1,00 h 0,533 mm 2,1 UV-I 537 W/m 12,4 C 14,0 C 39,4 km/h (6 Bft) 99,72 %
11.05.2016 17:00 18,9 C 64 % 1002,5 hPa 0,0 l/m 29,5 km/h (5 Bft) NO 0,73 h 0,457 mm 1,1 UV-I 336 W/m 12,0 C 13,3 C 38,8 km/h (5 Bft) 98,47 %
11.05.2016 18:00 17,8 C 67 % 1002,1 hPa 0,0 l/m 28,8 km/h (5 Bft) O-NO 0,08 h 0,330 mm 0,5 UV-I 141 W/m 11,6 C 11,9 C 38,6 km/h (5 Bft) 99,04 %
11.05.2016 19:00 17,1 C 68 % 1001,9 hPa 0,0 l/m 24,9 km/h (4 Bft) O-NO 0,00 h 0,204 mm 0,0 UV-I 66 W/m 11,2 C 11,5 C 32,7 km/h (5 Bft) 98,18 %
11.05.2016 20:00 16,2 C 72 % 1001,6 hPa 0,0 l/m 20,6 km/h (4 Bft) O-NO 0,00 h 0,127 mm 0,0 UV-I 12 W/m 11,2 C 11,2 C 28,2 km/h (4 Bft) 99,04 %
11.05.2016 21:00 15,3 C 76 % 1001,3 hPa 0,0 l/m 17,8 km/h (3 Bft) NO 0,00 h 0,076 mm 0,0 UV-I 0 W/m 11,1 C 10,8 C 24,5 km/h (4 Bft) 97,83 %
11.05.2016 22:00 14,6 C 79 % 1000,9 hPa 0,0 l/m 15,1 km/h (3 Bft) NO 0,00 h 0,051 mm 0,0 UV-I 0 W/m 11,0 C 10,7 C 21,3 km/h (4 Bft) 98,84 %
11.05.2016 23:00 14,2 C 81 % 1000,5 hPa 0,0 l/m 18,4 km/h (3 Bft) O-NO 0,00 h 0,050 mm 0,0 UV-I 0 W/m 11,0 C 9,2 C 24,6 km/h (4 Bft) 97,51 %
12.05.2016 00:00 14,0 C 82 % 1000,2 hPa 0,0 l/m 20,1 km/h (4 Bft) NO 0,00 h 0,000 mm 0,0 UV-I 0 W/m 10,9 C 8,5 C 27,0 km/h (4 Bft) 99,65 %
12.05.2016 01:00 13,8 C 84 % 999,5 hPa 0,0 l/m 17,7 km/h (3 Bft) NO 0,00 h 0,051 mm 0,0 UV-I 0 W/m 11,0 C 8,9 C 23,9 km/h (4 Bft) 98,20 %
12.05.2016 02:00 13,4 C 86 % 998,9 hPa 0,0 l/m 17,4 km/h (3 Bft) O-NO 0,00 h 0,025 mm 0,0 UV-I 0 W/m 11,1 C 8,5 C 23,2 km/h (4 Bft) 99,12 %
12.05.2016 03:00 13,2 C 86 % 998,3 hPa 0,0 l/m 18,1 km/h (3 Bft) O-NO 0,00 h 0,026 mm 0,0 UV-I 0 W/m 10,9 C 8,0 C 24,3 km/h (4 Bft) 97,60 %
12.05.2016 04:00 12,8 C 87 % 997,6 hPa 0,0 l/m 17,6 km/h (3 Bft) O-NO 0,00 h 0,025 mm 0,0 UV-I 0 W/m 10,7 C 7,7 C 23,7 km/h (4 Bft) 99,18 %
12.05.2016 05:00 12,7 C 89 % 997,1 hPa 0,0 l/m 18,3 km/h (3 Bft) O-NO 0,00 h 0,025 mm 0,0 UV-I 11 W/m 10,9 C 7,4 C 25,0 km/h (4 Bft) 97,85 %
12.05.2016 06:00 12,9 C 91 % 996,8 hPa 0,0 l/m 19,2 km/h (3 Bft) O-NO 0,00 h 0,026 mm 0,0 UV-I 33 W/m 11,4 C 7,3 C 25,6 km/h (4 Bft) 99,53 %
12.05.2016 07:00 13,5 C 90 % 996,5 hPa 0,0 l/m 18,8 km/h (3 Bft) O-NO 0,00 h 0,025 mm 0,5 UV-I 113 W/m 11,8 C 8,2 C 25,2 km/h (4 Bft) 97,61 %
12.05.2016 08:00 14,7 C 85 % 996,1 hPa 0,0 l/m 22,6 km/h (4 Bft) O-NO 0,50 h 0,076 mm 1,0 UV-I 292 W/m 12,2 C 8,9 C 30,0 km/h (5 Bft) 99,54 %
12.05.2016 09:00 16,4 C 79 % 995,7 hPa 0,0 l/m 25,8 km/h (4 Bft) O-NO 0,80 h 0,204 mm 2,0 UV-I 468 W/m 12,6 C 10,4 C 33,3 km/h (5 Bft) 97,68 %
12.05.2016 10:00 18,2 C 73 % 995,1 hPa 0,0 l/m 24,7 km/h (4 Bft) NO 1,00 h 0,304 mm 3,4 UV-I 669 W/m 13,3 C 13,1 C 33,4 km/h (5 Bft) 99,11 %
12.05.2016 11:00 19,7 C 68 % 994,8 hPa 0,0 l/m 27,4 km/h (4 Bft) O-NO 0,98 h 0,458 mm 4,4 UV-I 791 W/m 13,6 C 14,7 C 36,2 km/h (5 Bft) 98,31 %
12.05.2016 12:00 20,3 C 66 % 994,4 hPa 0,0 l/m 30,3 km/h (5 Bft) O-NO 0,87 h 0,558 mm 5,1 UV-I 824 W/m 13,7 C 15,2 C 40,6 km/h (6 Bft) 99,04 %
12.05.2016 13:00 19,7 C 69 % 993,8 hPa 0,0 l/m 32,3 km/h (5 Bft) NO 0,63 h 0,610 mm 4,4 UV-I 707 W/m 13,7 C 14,0 C 43,3 km/h (6 Bft) 98,21 %
12.05.2016 14:00 19,6 C 69 % 993,3 hPa 0,0 l/m 30,7 km/h (5 Bft) O-NO 0,87 h 0,559 mm 3,6 UV-I 615 W/m 13,8 C 14,1 C 40,7 km/h (6 Bft) 98,78 %
12.05.2016 15:00 19,0 C 71 % 993,3 hPa 0,0 l/m 31,8 km/h (5 Bft) NO 0,23 h 0,482 mm 2,0 UV-I 348 W/m 13,5 C 13,1 C 42,2 km/h (6 Bft) 98,25 %
12.05.2016 16:00 17,0 C 79 % 993,4 hPa 0,0 l/m 27,2 km/h (4 Bft) NO 0,00 h 0,305 mm 0,9 UV-I 188 W/m 13,2 C 11,0 C 36,8 km/h (5 Bft) 98,55 %
12.05.2016 17:00 15,8 C 83 % 993,6 hPa 0,0 l/m 25,7 km/h (4 Bft) NO 0,00 h 0,178 mm 0,0 UV-I 83 W/m 12,9 C 9,6 C 35,5 km/h (5 Bft) 98,39 %
12.05.2016 18:00 15,1 C 85 % 993,6 hPa 0,0 l/m 22,9 km/h (4 Bft) NO 0,00 h 0,102 mm 0,0 UV-I 75 W/m 12,7 C 9,3 C 31,3 km/h (5 Bft) 98,27 %
12.05.2016 19:00 14,8 C 87 % 993,8 hPa 0,0 l/m 19,0 km/h (3 Bft) O-NO 0,00 h 0,076 mm 0,0 UV-I 26 W/m 12,6 C 10,0 C 25,4 km/h (4 Bft) 98,93 %
12.05.2016 20:00 14,4 C 88 % 994,2 hPa 0,2 l/m 14,8 km/h (3 Bft) O-NO 0,00 h 0,051 mm 0,0 UV-I 5 W/m 12,4 C 10,7 C 20,8 km/h (4 Bft) 97,92 %
12.05.2016 21:00 12,4 C 92 % 994,8 hPa 3,0 l/m 15,7 km/h (3 Bft) W-SW 0,00 h 0,025 mm 0,0 UV-I 0 W/m 11,2 C 8,0 C 22,0 km/h (4 Bft) 98,38 %
12.05.2016 22:00 11,7 C 95 % 995,3 hPa 5,8 l/m 13,0 km/h (3 Bft) SW 0,00 h 0,025 mm 0,0 UV-I 0 W/m 10,9 C 8,2 C 18,5 km/h (3 Bft) 98,46 %
12.05.2016 23:00 11,0 C 95 % 995,4 hPa 2,8 l/m 14,9 km/h (3 Bft) W-SW 0,00 h 0,000 mm 0,0 UV-I 0 W/m 10,2 C 6,4 C 20,8 km/h (4 Bft) 98,91 %
13.05.2016 00:00 10,7 C 95 % 995,2 hPa 2,8 l/m 15,3 km/h (3 Bft) SW 0,00 h 0,000 mm 0,0 UV-I 0 W/m 9,9 C 5,9 C 21,6 km/h (4 Bft) 98,10 %
13.05.2016 01:00 10,2 C 95 % 995,0 hPa 1,6 l/m 14,7 km/h (3 Bft) SW 0,00 h 0,000 mm 0,0 UV-I 0 W/m 9,4 C 5,6 C 21,7 km/h (4 Bft) 98,99 %
13.05.2016 02:00 9,9 C 95 % 994,8 hPa 2,4 l/m 13,2 km/h (3 Bft) SW 0,00 h 0,000 mm 0,0 UV-I 0 W/m 9,1 C 5,9 C 18,4 km/h (3 Bft) 98,53 %
13.05.2016 03:00 9,8 C 95 % 994,6 hPa 2,0 l/m 11,0 km/h (2 Bft) W-SW 0,00 h 0,000 mm 0,0 UV-I 0 W/m 9,1 C 6,9 C 15,6 km/h (3 Bft) 98,85 %
13.05.2016 04:00 9,8 C 96 % 994,3 hPa 2,0 l/m 12,7 km/h (3 Bft) SW 0,00 h 0,000 mm 0,0 UV-I 0 W/m 9,1 C 6,0 C 17,8 km/h (3 Bft) 98,71 %
13.05.2016 05:00 9,8 C 96 % 993,9 hPa 2,0 l/m 14,5 km/h (3 Bft) SW 0,00 h 0,000 mm 0,0 UV-I 1 W/m 9,2 C 5,2 C 20,5 km/h (4 Bft) 98,33 %
13.05.2016 06:00 9,9 C 96 % 993,8 hPa 2,2 l/m 12,2 km/h (2 Bft) SW 0,00 h 0,000 mm 0,0 UV-I 10 W/m 9,3 C 6,3 C 16,8 km/h (3 Bft) 98,43 %
13.05.2016 07:00 10,0 C 96 % 993,8 hPa 3,0 l/m 11,4 km/h (2 Bft) SW 0,00 h 0,000 mm 0,0 UV-I 25 W/m 9,4 C 6,9 C 15,9 km/h (3 Bft) 98,30 %
13.05.2016 08:00 10,2 C 96 % 993,9 hPa 2,4 l/m 13,1 km/h (3 Bft) W-SW 0,00 h 0,025 mm 0,0 UV-I 60 W/m 9,6 C 6,2 C 18,2 km/h (3 Bft) 98,84 %
13.05.2016 09:00 10,5 C 96 % 994,0 hPa 1,2 l/m 12,1 km/h (2 Bft) W-SW 0,00 h 0,026 mm 0,5 UV-I 104 W/m 9,9 C 7,1 C 17,0 km/h (3 Bft) 98,12 %
13.05.2016 10:00 10,7 C 96 % 994,3 hPa 2,0 l/m 11,1 km/h (2 Bft) S-SW 0,00 h 0,051 mm 0,5 UV-I 82 W/m 10,1 C 7,9 C 15,9 km/h (3 Bft) 98,63 %
13.05.2016 11:00 11,0 C 96 % 994,8 hPa 1,6 l/m 10,7 km/h (2 Bft) SW 0,00 h 0,050 mm 0,6 UV-I 96 W/m 10,3 C 8,4 C 15,6 km/h (3 Bft) 98,34 %
13.05.2016 12:00 11,4 C 96 % 995,2 hPa 3,2 l/m 13,3 km/h (3 Bft) W-SW 0,00 h 0,051 mm 0,8 UV-I 132 W/m 10,7 C 7,6 C 18,2 km/h (3 Bft) 99,27 %
13.05.2016 13:00 11,5 C 96 % 995,7 hPa 3,8 l/m 12,3 km/h (3 Bft) SW 0,00 h 0,076 mm 0,7 UV-I 100 W/m 10,9 C 8,2 C 17,4 km/h (3 Bft) 98,03 %
13.05.2016 14:00 11,6 C 96 % 996,0 hPa 2,8 l/m 11,0 km/h (2 Bft) SW 0,00 h 0,051 mm 0,5 UV-I 68 W/m 11,0 C 8,9 C 16,5 km/h (3 Bft) 98,41 %
13.05.2016 15:00 12,0 C 96 % 996,0 hPa 1,0 l/m 13,3 km/h (3 Bft) SW 0,00 h 0,026 mm 0,6 UV-I 103 W/m 11,4 C 8,3 C 20,1 km/h (4 Bft) 98,52 %
13.05.2016 16:00 12,3 C 95 % 996,1 hPa 0,6 l/m 15,0 km/h (3 Bft) SW 0,00 h 0,050 mm 0,0 UV-I 74 W/m 11,5 C 8,0 C 22,3 km/h (4 Bft) 99,01 %
13.05.2016 17:00 12,3 C 95 % 996,2 hPa 1,6 l/m 16,1 km/h (3 Bft) SW 0,00 h 0,051 mm 0,0 UV-I 58 W/m 11,5 C 7,6 C 23,4 km/h (4 Bft) 98,42 %
13.05.2016 18:00 12,2 C 95 % 996,7 hPa 3,2 l/m 13,8 km/h (3 Bft) W-SW 0,00 h 0,026 mm 0,0 UV-I 16 W/m 11,4 C 8,5 C 19,6 km/h (3 Bft) 98,79 %
13.05.2016 19:00 12,0 C 95 % 996,9 hPa 1,0 l/m 16,1 km/h (3 Bft) W-SW 0,00 h 0,025 mm 0,0 UV-I 20 W/m 11,2 C 7,1 C 22,1 km/h (4 Bft) 97,73 %
13.05.2016 20:00 11,6 C 95 % 997,6 hPa 0,0 l/m 13,9 km/h (3 Bft) W-SW 0,00 h 0,025 mm 0,0 UV-I 8 W/m 10,9 C 7,7 C 19,7 km/h (3 Bft) 99,22 %
13.05.2016 21:00 11,5 C 96 % 998,5 hPa 0,0 l/m 13,4 km/h (3 Bft) W-SW 0,00 h 0,000 mm 0,0 UV-I 0 W/m 10,8 C 7,7 C 18,4 km/h (3 Bft) 97,47 %
13.05.2016 22:00 11,5 C 96 % 998,9 hPa 0,4 l/m 12,9 km/h (3 Bft) W-SW 0,00 h 0,000 mm 0,0 UV-I 0 W/m 10,9 C 7,9 C 17,6 km/h (3 Bft) 99,43 %
13.05.2016 23:00 11,3 C 97 % 999,3 hPa 0,4 l/m 11,2 km/h (2 Bft) SW 0,00 h 0,000 mm 0,0 UV-I 0 W/m 10,8 C 8,5 C 15,4 km/h (3 Bft) 98,05 %
14.05.2016 00:00 11,3 C 97 % 999,5 hPa 0,2 l/m 9,6 km/h (2 Bft) SW 0,00 h 0,000 mm 0,0 UV-I 0 W/m 10,8 C 9,3 C 13,4 km/h (3 Bft) 99,33 %
14.05.2016 01:00 11,3 C 97 % 999,4 hPa 0,4 l/m 9,5 km/h (2 Bft) W-SW 0,00 h 0,000 mm 0,0 UV-I 0 W/m 10,8 C 9,3 C 13,6 km/h (3 Bft) 97,89 %
14.05.2016 02:00 11,5 C 97 % 999,4 hPa 0,2 l/m 9,3 km/h (2 Bft) W-SW 0,00 h 0,000 mm 0,0 UV-I 0 W/m 11,0 C 9,7 C 13,3 km/h (3 Bft) 98,92 %
14.05.2016 03:00 11,7 C 97 % 999,7 hPa 0,4 l/m 8,2 km/h (2 Bft) W-SW 0,00 h 0,000 mm 0,0 UV-I 0 W/m 11,2 C 10,5 C 11,7 km/h (2 Bft) 98,16 %
14.05.2016 04:00 11,7 C 97 % 1000,0 hPa 0,4 l/m 8,5 km/h (2 Bft) W-SW 0,00 h 0,000 mm 0,0 UV-I 0 W/m 11,2 C 10,4 C 12,1 km/h (2 Bft) 99,39 %
14.05.2016 05:00 11,7 C 96 % 1000,2 hPa 0,0 l/m 11,6 km/h (2 Bft) W-SW 0,00 h 0,000 mm 0,0 UV-I 10 W/m 11,2 C 8,7 C 15,8 km/h (3 Bft) 97,38 %
14.05.2016 06:00 11,8 C 97 % 1000,6 hPa 0,0 l/m 7,9 km/h (2 Bft) W-SW 0,00 h 0,000 mm 0,0 UV-I 26 W/m 11,3 C 10,8 C 11,5 km/h (2 Bft) 98,85 %
14.05.2016 07:00 12,1 C 96 % 1001,0 hPa 0,0 l/m 8,0 km/h (2 Bft) W-SW 0,00 h 0,025 mm 0,0 UV-I 33 W/m 11,5 C 11,0 C 11,9 km/h (2 Bft) 97,62 %
14.05.2016 08:00 12,1 C 97 % 1001,4 hPa 1,4 l/m 7,3 km/h (2 Bft) W-SW 0,00 h 0,026 mm 0,0 UV-I 35 W/m 11,6 C 11,4 C 10,5 km/h (2 Bft) 99,08 %
14.05.2016 09:00 12,2 C 97 % 1001,8 hPa 1,4 l/m 7,7 km/h (2 Bft) W-SW 0,00 h 0,025 mm 0,0 UV-I 57 W/m 11,7 C 11,3 C 11,3 km/h (2 Bft) 97,70 %
14.05.2016 10:00 13,1 C 96 % 1002,4 hPa 0,0 l/m 7,0 km/h (2 Bft) W-SW 0,00 h 0,026 mm 1,2 UV-I 223 W/m 12,4 C 12,5 C 10,9 km/h (2 Bft) 99,53 %
14.05.2016 11:00 14,0 C 91 % 1003,4 hPa 0,0 l/m 12,6 km/h (3 Bft) W-SW 0,00 h 0,101 mm 1,6 UV-I 275 W/m 12,6 C 11,0 C 17,9 km/h (3 Bft) 97,91 %
14.05.2016 12:00 14,6 C 84 % 1004,4 hPa 0,0 l/m 14,7 km/h (3 Bft) W-SW 0,55 h 0,153 mm 2,6 UV-I 495 W/m 12,0 C 10,9 C 20,7 km/h (4 Bft) 99,13 %
14.05.2016 13:00 15,0 C 81 % 1004,8 hPa 0,2 l/m 16,8 km/h (3 Bft) SW 0,23 h 0,279 mm 2,4 UV-I 361 W/m 11,8 C 10,8 C 24,5 km/h (4 Bft) 97,79 %
14.05.2016 14:00 15,2 C 79 % 1004,9 hPa 0,0 l/m 19,2 km/h (3 Bft) SW 0,20 h 0,279 mm 2,0 UV-I 411 W/m 11,5 C 10,3 C 27,1 km/h (4 Bft) 99,28 %
14.05.2016 15:00 14,5 C 73 % 1004,8 hPa 0,0 l/m 19,3 km/h (3 Bft) SW 0,00 h 0,254 mm 1,3 UV-I 289 W/m 9,8 C 9,4 C 27,8 km/h (4 Bft) 97,85 %
14.05.2016 16:00 15,3 C 67 % 1004,9 hPa 0,0 l/m 21,5 km/h (4 Bft) SW 0,98 h 0,204 mm 1,9 UV-I 561 W/m 9,1 C 9,8 C 30,6 km/h (5 Bft) 98,92 %
14.05.2016 17:00 15,3 C 68 % 1005,4 hPa 0,0 l/m 13,9 km/h (3 Bft) W-SW 0,33 h 0,381 mm 0,8 UV-I 269 W/m 9,4 C 12,1 C 20,7 km/h (4 Bft) 98,46 %
14.05.2016 18:00 14,2 C 71 % 1006,0 hPa 0,0 l/m 5,7 km/h (1 Bft) W 0,00 h 0,203 mm 0,2 UV-I 87 W/m 8,9 C 13,7 C 10,3 km/h (2 Bft) 98,45 %
14.05.2016 19:00 13,7 C 75 % 1006,5 hPa 0,0 l/m 2,8 km/h (1 Bft) W-SW 0,00 h 0,076 mm 0,0 UV-I 42 W/m 9,3 C 13,7 C 4,4 km/h (1 Bft) 98,65 %
14.05.2016 20:00 13,1 C 76 % 1007,0 hPa 0,0 l/m 6,9 km/h (2 Bft) W 0,00 h 0,025 mm 0,0 UV-I 15 W/m 9,0 C 12,0 C 10,3 km/h (2 Bft) 99,21 %
14.05.2016 21:00 12,2 C 78 % 1008,0 hPa 0,0 l/m 10,9 km/h (2 Bft) W-SW 0,00 h 0,026 mm 0,0 UV-I 0 W/m 8,5 C 9,6 C 17,4 km/h (3 Bft) 97,75 %
14.05.2016 22:00 11,2 C 84 % 1008,8 hPa 0,0 l/m 13,2 km/h (3 Bft) W-SW 0,00 h 0,025 mm 0,0 UV-I 0 W/m 8,5 C 7,5 C 18,8 km/h (3 Bft) 98,72 %
14.05.2016 23:00 10,8 C 86 % 1009,6 hPa 0,2 l/m 15,7 km/h (3 Bft) W-SW 0,00 h 0,026 mm 0,0 UV-I 0 W/m 8,5 C 5,9 C 21,8 km/h (4 Bft) 98,42 %
15.05.2016 00:00 10,0 C 87 % 1010,3 hPa 0,0 l/m 14,0 km/h (3 Bft) W-SW 0,00 h 0,000 mm 0,0 UV-I 0 W/m 7,9 C 5,6 C 19,4 km/h (3 Bft) 99,44 %
15.05.2016 01:00 9,6 C 84 % 1011,1 hPa 0,0 l/m 11,5 km/h (2 Bft) W-SW 0,00 h 0,025 mm 0,0 UV-I 0 W/m 7,0 C 6,5 C 16,0 km/h (3 Bft) 97,78 %
15.05.2016 02:00 9,3 C 83 % 1011,7 hPa 0,0 l/m 9,8 km/h (2 Bft) W-SW 0,00 h 0,026 mm 0,0 UV-I 0 W/m 6,6 C 7,1 C 14,3 km/h (3 Bft) 99,47 %
15.05.2016 03:00 9,0 C 77 % 1012,1 hPa 0,0 l/m 11,7 km/h (2 Bft) W 0,00 h 0,025 mm 0,0 UV-I 0 W/m 5,1 C 5,7 C 17,1 km/h (3 Bft) 97,91 %
15.05.2016 04:00 8,3 C 71 % 1012,7 hPa 0,0 l/m 9,9 km/h (2 Bft) W-SW 0,00 h 0,026 mm 0,0 UV-I 0 W/m 3,3 C 5,9 C 15,4 km/h (3 Bft) 99,55 %
15.05.2016 05:00 8,0 C 76 % 1013,3 hPa 0,0 l/m 8,5 km/h (2 Bft) W-SW 0,00 h 0,025 mm 0,0 UV-I 11 W/m 4,0 C 6,4 C 13,1 km/h (3 Bft) 98,37 %
15.05.2016 06:00 7,8 C 77 % 1013,8 hPa 0,0 l/m 9,3 km/h (2 Bft) W-SW 0,00 h 0,025 mm 0,0 UV-I 58 W/m 4,1 C 5,7 C 13,8 km/h (3 Bft) 99,01 %
15.05.2016 07:00 8,0 C 76 % 1014,4 hPa 0,0 l/m 11,3 km/h (2 Bft) W-SW 0,43 h 0,051 mm 0,5 UV-I 189 W/m 4,0 C 4,8 C 16,4 km/h (3 Bft) 97,82 %
15.05.2016 08:00 8,7 C 71 % 1014,9 hPa 0,0 l/m 13,0 km/h (3 Bft) W-SW 1,00 h 0,102 mm 1,0 UV-I 370 W/m 3,7 C 4,7 C 20,3 km/h (4 Bft) 99,32 %
15.05.2016 09:00 9,2 C 66 % 1015,3 hPa 0,0 l/m 14,3 km/h (3 Bft) W-SW 0,58 h 0,203 mm 1,3 UV-I 383 W/m 3,3 C 4,6 C 21,7 km/h (4 Bft) 98,24 %
15.05.2016 10:00 9,2 C 67 % 1015,4 hPa 0,2 l/m 14,2 km/h (3 Bft) W 0,33 h 0,203 mm 2,1 UV-I 467 W/m 3,4 C 4,8 C 21,4 km/h (4 Bft) 98,97 %
15.05.2016 11:00 10,6 C 59 % 1015,4 hPa 0,0 l/m 17,1 km/h (3 Bft) W-SW 0,50 h 0,254 mm 2,6 UV-I 591 W/m 2,8 C 5,3 C 24,6 km/h (4 Bft) 98,51 %
15.05.2016 12:00 10,4 C 57 % 1015,7 hPa 0,0 l/m 13,4 km/h (3 Bft) W-SW 0,05 h 0,330 mm 2,1 UV-I 356 W/m 2,1 C 6,4 C 21,5 km/h (4 Bft) 98,57 %
15.05.2016 13:00 10,2 C 56 % 1015,8 hPa 0,0 l/m 13,0 km/h (3 Bft) W-SW 0,05 h 0,229 mm 1,9 UV-I 321 W/m 2,0 C 6,5 C 20,7 km/h (4 Bft) 99,23 %
15.05.2016 14:00 10,8 C 57 % 1015,9 hPa 0,0 l/m 14,4 km/h (3 Bft) W-SW 0,55 h 0,203 mm 2,8 UV-I 575 W/m 2,6 C 6,5 C 22,5 km/h (4 Bft) 98,00 %
15.05.2016 15:00 10,0 C 58 % 1016,2 hPa 0,0 l/m 11,8 km/h (2 Bft) W-SW 0,05 h 0,330 mm 1,1 UV-I 213 W/m 2,1 C 6,8 C 18,7 km/h (3 Bft) 99,55 %
15.05.2016 16:00 10,1 C 54 % 1016,4 hPa 0,0 l/m 13,2 km/h (3 Bft) W-SW 0,08 h 0,153 mm 1,0 UV-I 233 W/m 1,3 C 6,2 C 19,4 km/h (3 Bft) 97,95 %
15.05.2016 17:00 10,1 C 58 % 1016,5 hPa 0,0 l/m 12,9 km/h (3 Bft) W-SW 0,23 h 0,178 mm 0,7 UV-I 223 W/m 2,3 C 6,3 C 18,5 km/h (3 Bft) 99,56 %
15.05.2016 18:00 10,2 C 54 % 1016,5 hPa 0,0 l/m 13,1 km/h (3 Bft) W-SW 0,45 h 0,152 mm 0,5 UV-I 193 W/m 1,4 C 6,4 C 19,6 km/h (3 Bft) 97,78 %
15.05.2016 19:00 9,5 C 70 % 1016,9 hPa 0,0 l/m 9,2 km/h (2 Bft) W-SW 0,40 h 0,152 mm 0,0 UV-I 88 W/m 4,3 C 7,6 C 13,4 km/h (3 Bft) 99,71 %
15.05.2016 20:00 8,4 C 59 % 1017,4 hPa 0,0 l/m 8,1 km/h (2 Bft) W-SW 0,05 h 0,077 mm 0,0 UV-I 12 W/m 0,8 C 7,2 C 12,0 km/h (2 Bft) 97,67 %
15.05.2016 21:00 7,0 C 78 % 1018,0 hPa 0,0 l/m 8,8 km/h (2 Bft) SW 0,00 h 0,050 mm 0,0 UV-I 0 W/m 3,3 C 5,1 C 13,3 km/h (3 Bft) 99,26 %
15.05.2016 22:00 6,6 C 83 % 1018,5 hPa 0,0 l/m 9,4 km/h (2 Bft) SW 0,00 h 0,026 mm 0,0 UV-I 0 W/m 3,9 C 4,3 C 13,0 km/h (3 Bft) 97,81 %
15.05.2016 23:00 6,8 C 82 % 1018,8 hPa 0,0 l/m 8,2 km/h (2 Bft) SW 0,00 h 0,025 mm 0,0 UV-I 0 W/m 4,0 C 5,3 C 11,6 km/h (2 Bft) 99,50 %
Min-Datum _ 15.05.16 09.05.16 12.05.16 - 14.05.16 - - - - - 15.05.16 15.05.16 14.05.16 14.05.16
_ Min-Zeit 22:28 17:42 15:06 - 19:54 - - - - - 20:23 07:36 19:14 05:24
Minimum _ 6,5 C 43 % 993,1 hPa - 0,3 km/h (0 Bft) - - - - - 0,3 C -0,1 C 1,6 km/h (1 Bft) 80,00 %
Max-Datum _ 09.05.16 13.05.16 15.05.16 12.05.16 12.05.16 - 09.05.16 09.05.16 12.05.16 15.05.16 12.05.16 09.05.16 12.05.16 09.05.16
_ Max-Zeit 16:37 14:49 23:49 22:00 13:46 - 09:02 14:00 12:47 11:59 12:35 16:38 13:18 00:02
Maximum _ 22,8 C 97 % 1018,9 hPa 5,8 l/m 42,4 km/h
NO (6 Bft)
- 0,03 h 0,635 mm 6,1 UV-I 1090 W/m 14,8 C 21,1 C 57,9 km/h
NO (7 Bft)
100,00 %
Durchschnitt _ 13,6 C 78 % 1005,5 hPa #60,0 l/m 16,0 km/h (3 Bft) O-NO #40:21 h #24,916 mm 2,1 UV-I 284 W/m 9,6 C 9,8 C 22,1 km/h (4 Bft) 98,60 %